Time;durP1;ratioP1;P1;durP2;ratioP2;P2;SDS_P1;SDS_P2;PMS_P1;PMS_P2;Temp;Humidity;BMP_temperature;BMP_pressure;BME280_temperature;BME280_humidity;BME280_pressure;Samples;Min_cycle;Max_cycle;Signal;HPM_P1;HPM_P2
2022/10/03 00:02:06;;;;;;;8.00;2.35;;;;;;;;;;5053307;28;20013;-81
2022/10/03 00:05:01;;;;;;;3.30;1.90;;;;;;;;;;5053272;28;20029;-82
2022/10/03 00:07:37;;;;;;;4.45;2.05;;;;;;;;;;5052908;28;20104;-82
2022/10/03 00:10:22;;;;;;;5.43;1.92;;;;;;;;;;5054678;28;20029;-82
2022/10/03 00:13:12;;;;;;;4.72;2.10;;;;;;;;;;5053155;28;20029;-83
2022/10/03 00:15:41;;;;;;;4.22;2.10;;;;;;;;;;5054347;28;20207;-82
2022/10/03 00:18:13;;;;;;;4.65;2.10;;;;;;;;;;5053032;28;20036;-82
2022/10/03 00:21:02;;;;;;;5.85;2.33;;;;;;;;;;5054463;28;20382;-82
2022/10/03 00:23:34;;;;;;;5.00;2.03;;;;;;;;;;5036200;28;20032;-82
2022/10/03 00:26:25;;;;;;;5.70;2.13;;;;;;;;;;5052923;28;20033;-82
2022/10/03 00:29:03;;;;;;;5.20;2.03;;;;;;;;;;5054120;28;20035;-83
2022/10/03 00:31:44;;;;;;;4.70;2.10;;;;;;;;;;5054343;28;20017;-83
2022/10/03 00:34:31;;;;;;;4.82;1.95;;;;;;;;;;5054069;28;20024;-83
2022/10/03 00:37:34;;;;;;;4.03;2.13;;;;;;;;;;5054039;28;20021;-83
2022/10/03 00:40:14;;;;;;;5.47;1.80;;;;;;;;;;5052725;28;20036;-82
2022/10/03 00:42:59;;;;;;;4.30;1.77;;;;;;;;;;5053639;28;20535;-83
2022/10/03 00:45:33;;;;;;;6.57;1.90;;;;;;;;;;5053953;28;20029;-82
2022/10/03 00:48:13;;;;;;;4.85;1.90;;;;;;;;;;5053720;28;20418;-83
2022/10/03 00:50:52;;;;;;;5.15;1.90;;;;;;;;;;5035984;28;20390;-83
2022/10/03 00:53:46;;;;;;;4.53;1.77;;;;;;;;;;5054216;28;20025;-83
2022/10/03 00:56:36;;;;;;;5.33;1.93;;;;;;;;;;5052431;28;20020;-83
2022/10/03 00:59:10;;;;;;;5.65;2.13;;;;;;;;;;5053550;28;20329;-84
2022/10/03 01:01:43;;;;;;;3.72;1.65;;;;;;;;;;5052359;28;20025;-83
2022/10/03 01:04:09;;;;;;;5.45;2.15;;;;;;;;;;5035544;28;20083;-83
2022/10/03 01:07:00;;;;;;;2.78;1.67;;;;;;;;;;5053869;28;20017;-83
2022/10/03 01:09:53;;;;;;;4.90;1.95;;;;;;;;;;5051956;28;20028;-83
2022/10/03 01:12:38;;;;;;;3.83;2.00;;;;;;;;;;5053345;28;20021;-83
2022/10/03 01:15:37;;;;;;;3.97;1.80;;;;;;;;;;5052284;28;20025;-83
2022/10/03 01:18:24;;;;;;;3.28;1.60;;;;;;;;;;5051474;28;20430;-83
2022/10/03 01:20:57;;;;;;;2.92;1.70;;;;;;;;;;5051695;28;20090;-83
2022/10/03 01:23:28;;;;;;;3.85;1.90;;;;;;;;;;5051816;28;20033;-83
2022/10/03 01:26:19;;;;;;;4.15;1.60;;;;;;;;;;5052940;28;20017;-83
2022/10/03 01:32:32;;;;;;;4.88;1.85;;;;;;;;;;5041685;28;20104;-84
2022/10/03 01:35:14;;;;;;;5.53;1.73;;;;;;;;;;5053186;28;20537;-84
2022/10/03 01:38:00;;;;;;;2.72;1.67;;;;;;;;;;5034960;28;20032;-84
2022/10/03 01:40:44;;;;;;;4.50;1.70;;;;;;;;;;5051652;28;20533;-84
2022/10/03 01:43:40;;;;;;;2.50;1.60;;;;;;;;;;5052657;28;20459;-84
2022/10/03 01:46:19;;;;;;;3.03;1.60;;;;;;;;;;5051524;28;20024;-85
2022/10/03 01:49:08;;;;;;;3.17;1.50;;;;;;;;;;5034904;28;20036;-83
2022/10/03 01:51:43;;;;;;;5.82;1.80;;;;;;;;;;5034778;28;20037;-83
2022/10/03 01:54:43;;;;;;;7.40;1.80;;;;;;;;;;5034921;28;20025;-83
2022/10/03 01:57:28;;;;;;;3.22;1.67;;;;;;;;;;5043881;28;20037;-82
2022/10/03 02:00:13;;;;;;;4.18;2.05;;;;;;;;;;5052088;28;20031;-84
2022/10/03 02:02:45;;;;;;;4.63;1.80;;;;;;;;;;5051349;28;20033;-83
2022/10/03 02:05:56;;;;;;;3.97;1.55;;;;;;;;;;5052551;28;20025;-83
2022/10/03 02:08:43;;;;;;;5.10;2.05;;;;;;;;;;5050993;28;20021;-83
2022/10/03 02:11:10;;;;;;;3.63;1.48;;;;;;;;;;5052834;28;20025;-83
2022/10/03 02:14:04;;;;;;;2.42;1.58;;;;;;;;;;5034668;28;20033;-83
2022/10/03 02:16:43;;;;;;;3.95;1.63;;;;;;;;;;5051470;28;20025;-83
2022/10/03 02:19:22;;;;;;;4.32;2.03;;;;;;;;;;5051421;28;20083;-84
2022/10/03 02:21:50;;;;;;;5.43;1.77;;;;;;;;;;5051256;28;20472;-83
2022/10/03 02:24:19;;;;;;;2.72;1.70;;;;;;;;;;5051467;28;20115;-83
2022/10/03 02:27:05;;;;;;;2.88;1.48;;;;;;;;;;5052504;28;20103;-83
2022/10/03 02:29:46;;;;;;;5.07;1.50;;;;;;;;;;5052402;28;20098;-83
2022/10/03 02:32:23;;;;;;;4.05;1.80;;;;;;;;;;5056536;28;20021;-83
2022/10/03 02:35:09;;;;;;;3.20;1.60;;;;;;;;;;5056486;28;20104;-84
2022/10/03 02:38:19;;;;;;;2.67;1.60;;;;;;;;;;5056498;28;20021;-83
2022/10/03 02:41:08;;;;;;;5.18;1.50;;;;;;;;;;5055574;28;20037;-84
2022/10/03 02:44:12;;;;;;;4.88;1.70;;;;;;;;;;5038191;28;20095;-83
2022/10/03 02:47:08;;;;;;;2.88;1.60;;;;;;;;;;5047056;28;20035;-82
2022/10/03 02:49:46;;;;;;;3.72;1.80;;;;;;;;;;5054759;28;20033;-84
2022/10/03 02:52:14;;;;;;;3.38;1.50;;;;;;;;;;5055947;28;20120;-83
2022/10/03 02:55:12;;;;;;;3.97;1.60;;;;;;;;;;5054611;28;20043;-82
2022/10/03 02:57:55;;;;;;;2.53;1.38;;;;;;;;;;5054557;28;20040;-82
2022/10/03 03:00:22;;;;;;;3.95;1.65;;;;;;;;;;5056034;28;20029;-82
2022/10/03 03:03:12;;;;;;;2.90;1.50;;;;;;;;;;5054623;28;20055;-82
2022/10/03 03:05:52;;;;;;;4.43;1.60;;;;;;;;;;5055610;28;20033;-82
2022/10/03 03:08:39;;;;;;;3.60;1.50;;;;;;;;;;5054331;28;20056;-81
2022/10/03 03:11:28;;;;;;;4.45;1.48;;;;;;;;;;5055582;28;20021;-83
2022/10/03 03:14:24;;;;;;;4.35;1.90;;;;;;;;;;5054193;28;20058;-83
2022/10/03 03:17:08;;;;;;;5.70;1.75;;;;;;;;;;5055422;28;20051;-83
2022/10/03 03:19:59;;;;;;;2.35;1.40;;;;;;;;;;5055234;28;20029;-83
2022/10/03 03:22:42;;;;;;;3.22;1.40;;;;;;;;;;5054025;28;20076;-83
2022/10/03 03:25:34;;;;;;;4.32;1.60;;;;;;;;;;5055226;28;20079;-84
2022/10/03 03:28:12;;;;;;;3.45;1.80;;;;;;;;;;5053976;28;20028;-83
2022/10/03 03:30:57;;;;;;;4.28;1.60;;;;;;;;;;5053953;28;20036;-83
2022/10/03 03:33:37;;;;;;;2.58;1.55;;;;;;;;;;5037086;28;20024;-83
2022/10/03 03:36:27;;;;;;;3.40;1.60;;;;;;;;;;5037730;28;20537;-83
2022/10/03 03:39:05;;;;;;;3.10;1.60;;;;;;;;;;5055617;28;20039;-83
2022/10/03 03:41:52;;;;;;;2.95;1.77;;;;;;;;;;5036030;28;20041;-84
2022/10/03 03:44:44;;;;;;;4.60;1.63;;;;;;;;;;5055146;28;20104;-83
2022/10/03 03:47:47;;;;;;;3.60;1.80;;;;;;;;;;5054038;28;20543;-83
2022/10/03 03:50:36;;;;;;;3.08;1.67;;;;;;;;;;5053677;28;20036;-83
2022/10/03 03:53:14;;;;;;;3.38;1.60;;;;;;;;;;5053539;28;20552;-83
2022/10/03 03:56:02;;;;;;;3.20;1.52;;;;;;;;;;5053960;28;20459;-82
2022/10/03 03:58:32;;;;;;;2.45;1.40;;;;;;;;;;5055010;28;20025;-82
2022/10/03 04:01:06;;;;;;;2.85;1.55;;;;;;;;;;5053421;28;20070;-81
2022/10/03 04:03:53;;;;;;;2.80;1.45;;;;;;;;;;5054893;28;20033;-81
2022/10/03 04:06:46;;;;;;;2.95;1.50;;;;;;;;;;5054561;28;20431;-81
2022/10/03 04:09:29;;;;;;;8.13;1.73;;;;;;;;;;5054596;28;20024;-81
2022/10/03 04:12:12;;;;;;;6.17;2.30;;;;;;;;;;5054797;28;20079;-80
2022/10/03 04:14:48;;;;;;;10.18;1.98;;;;;;;;;;5053466;28;20116;-81
2022/10/03 04:21:19;;;;;;;8.05;2.70;;;;;;;;;;5053329;28;20055;-79
2022/10/03 04:23:56;;;;;;;8.18;2.42;;;;;;;;;;5052311;28;20415;-79
2022/10/03 04:26:43;;;;;;;9.52;2.80;;;;;;;;;;5050827;28;20024;-79
2022/10/03 04:29:27;;;;;;;10.30;2.72;;;;;;;;;;5051028;28;20032;-78
2022/10/03 04:32:19;;;;;;;6.95;2.50;;;;;;;;;;5051150;28;20421;-79
2022/10/03 04:35:02;;;;;;;10.10;2.75;;;;;;;;;;5035244;28;20411;-78
2022/10/03 04:37:27;;;;;;;10.27;2.83;;;;;;;;;;5034980;28;20033;-79
2022/10/03 04:39:56;;;;;;;10.50;2.40;;;;;;;;;;5059382;28;20028;-78
2022/10/03 04:42:46;;;;;;;10.40;3.10;;;;;;;;;;5041378;28;20041;-79
2022/10/03 04:45:11;;;;;;;8.70;2.55;;;;;;;;;;5035037;28;20105;-78
2022/10/03 04:47:59;;;;;;;7.20;2.50;;;;;;;;;;5051596;28;20076;-79
2022/10/03 04:50:36;;;;;;;9.77;2.80;;;;;;;;;;5034821;28;20076;-81
2022/10/03 04:53:30;;;;;;;9.63;2.75;;;;;;;;;;5018153;28;20035;-78
2022/10/03 04:56:05;;;;;;;10.23;2.83;;;;;;;;;;5051178;28;20503;-78
2022/10/03 04:58:47;;;;;;;13.77;3.70;;;;;;;;;;5034774;28;20380;-79
2022/10/03 05:01:29;;;;;;;15.07;3.53;;;;;;;;;;5052347;28;20479;-78
2022/10/03 05:04:14;;;;;;;25.90;4.57;;;;;;;;;;5052222;28;20470;-79
2022/10/03 05:06:46;;;;;;;17.50;4.05;;;;;;;;;;5053034;28;20552;-79
2022/10/03 05:09:37;;;;;;;24.08;4.03;;;;;;;;;;5053682;28;20360;-79
2022/10/03 05:12:19;;;;;;;14.20;4.18;;;;;;;;;;5051826;28;20060;-79
2022/10/03 05:15:04;;;;;;;12.57;3.25;;;;;;;;;;5051956;28;20111;-80
2022/10/03 05:17:48;;;;;;;12.85;3.72;;;;;;;;;;5053908;28;20017;-80
2022/10/03 05:20:23;;;;;;;17.90;3.30;;;;;;;;;;5052530;28;20094;-80
2022/10/03 05:22:59;;;;;;;11.73;3.05;;;;;;;;;;5054007;28;20056;-81
2022/10/03 05:25:38;;;;;;;14.98;3.13;;;;;;;;;;5052646;28;20024;-81
2022/10/03 05:28:35;;;;;;;11.88;3.22;;;;;;;;;;5052526;28;20028;-81
2022/10/03 05:31:26;;;;;;;8.43;2.70;;;;;;;;;;5054174;28;20441;-80
2022/10/03 05:34:00;;;;;;;11.95;2.53;;;;;;;;;;5052684;28;20030;-80
2022/10/03 05:36:44;;;;;;;13.15;2.65;;;;;;;;;;5053235;28;20024;-80
2022/10/03 05:39:30;;;;;;;4.28;2.33;;;;;;;;;;5054154;28;20052;-80
2022/10/03 05:42:25;;;;;;;8.40;2.22;;;;;;;;;;5051951;28;20087;-80
2022/10/03 05:45:02;;;;;;;6.55;2.25;;;;;;;;;;5052228;28;20426;-80
2022/10/03 05:47:47;;;;;;;8.70;2.60;;;;;;;;;;5053720;28;20033;-80
2022/10/03 05:50:31;;;;;;;5.63;2.05;;;;;;;;;;5052184;28;20025;-80
2022/10/03 05:53:14;;;;;;;6.55;1.90;;;;;;;;;;5052221;28;20537;-80
2022/10/03 05:56:03;;;;;;;8.07;2.15;;;;;;;;;;5053613;28;20032;-82
2022/10/03 05:59:06;;;;;;;6.28;2.20;;;;;;;;;;5053351;28;20020;-80
2022/10/03 06:01:47;;;;;;;6.22;2.00;;;;;;;;;;5054157;28;20025;-80
2022/10/03 06:04:43;;;;;;;4.03;1.80;;;;;;;;;;5053110;28;20498;-80
2022/10/03 06:07:39;;;;;;;6.45;2.20;;;;;;;;;;5053212;28;20104;-80
2022/10/03 06:10:19;;;;;;;3.58;2.00;;;;;;;;;;5052202;28;20068;-81
2022/10/03 06:13:15;;;;;;;5.57;2.22;;;;;;;;;;5053615;28;20025;-80
2022/10/03 06:15:53;;;;;;;5.78;2.40;;;;;;;;;;5035232;28;20431;-80
2022/10/03 06:18:46;;;;;;;3.05;2.15;;;;;;;;;;5035685;28;20060;-80
2022/10/03 06:21:11;;;;;;;6.10;2.08;;;;;;;;;;5053144;28;20071;-81
2022/10/03 06:24:01;;;;;;;6.70;2.50;;;;;;;;;;5053406;28;20056;-80
2022/10/03 06:26:45;;;;;;;5.15;2.25;;;;;;;;;;5053331;28;20071;-80
2022/10/03 06:29:35;;;;;;;6.20;2.15;;;;;;;;;;5051735;28;20434;-81
2022/10/03 06:32:15;;;;;;;5.65;2.40;;;;;;;;;;5053068;28;20084;-80
2022/10/03 06:34:47;;;;;;;3.08;2.20;;;;;;;;;;5053596;28;20367;-80
2022/10/03 06:37:48;;;;;;;5.65;2.33;;;;;;;;;;5052902;28;20127;-80
2022/10/03 06:40:25;;;;;;;10.38;2.40;;;;;;;;;;5053272;28;20029;-81
2022/10/03 06:42:59;;;;;;;9.48;2.40;;;;;;;;;;5051885;28;20052;-81
2022/10/03 06:46:02;;;;;;;4.93;2.38;;;;;;;;;;5051599;28;20063;-81
2022/10/03 06:48:32;;;;;;;6.72;2.67;;;;;;;;;;5051637;28;20211;-81
2022/10/03 06:51:32;;;;;;;5.15;2.40;;;;;;;;;;5035036;28;20043;-81
2022/10/03 06:54:22;;;;;;;5.63;2.75;;;;;;;;;;5052881;28;20043;-80
2022/10/03 06:57:15;;;;;;;3.70;2.50;;;;;;;;;;5035709;28;20119;-81
2022/10/03 06:59:49;;;;;;;4.65;2.38;;;;;;;;;;5052958;28;20032;-81
2022/10/03 07:02:32;;;;;;;7.63;2.67;;;;;;;;;;5052464;28;20083;-81
2022/10/03 07:05:26;;;;;;;6.17;2.40;;;;;;;;;;5052602;28;20090;-80
2022/10/03 07:08:28;;;;;;;4.18;2.50;;;;;;;;;;5051448;28;20027;-80
2022/10/03 07:11:09;;;;;;;7.10;2.60;;;;;;;;;;5052902;28;20464;-81
2022/10/03 07:14:15;;;;;;;5.85;2.20;;;;;;;;;;5052856;28;20475;-81
2022/10/03 07:17:32;;;;;;;5.50;2.13;;;;;;;;;;5035220;28;20365;-81
2022/10/03 07:20:06;;;;;;;4.95;3.08;;;;;;;;;;5046485;28;20067;-81
2022/10/03 07:23:19;;;;;;;4.60;2.40;;;;;;;;;;5054914;28;20099;-81
2022/10/03 07:26:14;;;;;;;7.50;2.45;;;;;;;;;;5037825;28;20029;-81
2022/10/03 07:28:50;;;;;;;6.40;2.15;;;;;;;;;;5038083;28;20036;-81
2022/10/03 07:31:31;;;;;;;6.55;2.40;;;;;;;;;;5054767;28;20424;-81
2022/10/03 07:33:56;;;;;;;7.70;2.47;;;;;;;;;;5055900;28;20079;-81
2022/10/03 07:39:43;;;;;;;7.43;2.55;;;;;;;;;;5055341;28;20044;-81
2022/10/03 07:42:26;;;;;;;8.13;2.58;;;;;;;;;;5056009;28;20152;-81
2022/10/03 07:45:33;;;;;;;4.68;2.22;;;;;;;;;;5055248;28;20033;-81
2022/10/03 07:48:13;;;;;;;3.47;1.98;;;;;;;;;;5055266;28;20029;-81
2022/10/03 07:50:54;;;;;;;8.40;2.78;;;;;;;;;;5056737;28;20497;-81
2022/10/03 07:53:38;;;;;;;6.15;2.20;;;;;;;;;;5054594;28;20128;-81
2022/10/03 07:56:16;;;;;;;7.55;2.00;;;;;;;;;;5054524;28;20028;-81
2022/10/03 07:59:00;;;;;;;3.10;1.77;;;;;;;;;;5055509;28;20029;-80
2022/10/03 08:02:00;;;;;;;4.68;1.92;;;;;;;;;;5055628;28;20383;-81
2022/10/03 08:04:49;;;;;;;5.40;1.95;;;;;;;;;;5055329;28;20025;-81
2022/10/03 08:07:26;;;;;;;10.48;2.15;;;;;;;;;;5037408;28;20032;-81
2022/10/03 08:10:24;;;;;;;7.70;2.53;;;;;;;;;;5053851;28;20482;-80
2022/10/03 08:13:08;;;;;;;4.03;2.00;;;;;;;;;;5054516;28;20506;-81
2022/10/03 08:15:54;;;;;;;4.40;1.90;;;;;;;;;;5053700;28;20027;-80
2022/10/03 08:18:23;;;;;;;3.13;1.75;;;;;;;;;;5054060;28;20063;-81
2022/10/03 08:20:59;;;;;;;6.75;2.25;;;;;;;;;;5054020;28;20048;-81
2022/10/03 08:24:07;;;;;;;5.95;1.70;;;;;;;;;;5054255;28;20025;-81
2022/10/03 08:26:42;;;;;;;8.70;2.45;;;;;;;;;;5038743;28;20112;-81
2022/10/03 08:29:42;;;;;;;4.85;1.90;;;;;;;;;;5052376;28;20053;-81
2022/10/03 08:32:26;;;;;;;5.43;2.10;;;;;;;;;;5056025;28;20021;-81
2022/10/03 08:35:19;;;;;;;8.10;2.00;;;;;;;;;;5054081;28;20025;-81
2022/10/03 08:38:03;;;;;;;7.07;2.05;;;;;;;;;;5053498;28;20033;-81
2022/10/03 08:41:13;;;;;;;5.72;2.03;;;;;;;;;;5054609;28;20438;-81
2022/10/03 08:44:10;;;;;;;7.03;2.10;;;;;;;;;;5054256;28;20052;-81
2022/10/03 08:47:01;;;;;;;5.93;2.10;;;;;;;;;;5054888;28;20029;-81
2022/10/03 08:49:57;;;;;;;4.93;2.20;;;;;;;;;;5053329;28;20031;-81
2022/10/03 08:52:39;;;;;;;7.03;2.40;;;;;;;;;;5036618;28;20060;-81
2022/10/03 08:55:32;;;;;;;5.65;2.67;;;;;;;;;;5053481;28;20024;-81
2022/10/03 08:58:17;;;;;;;4.70;1.73;;;;;;;;;;5054383;28;20025;-81
2022/10/03 09:01:10;;;;;;;5.22;1.80;;;;;;;;;;5054313;28;20055;-80
2022/10/03 09:04:13;;;;;;;6.70;2.33;;;;;;;;;;5036274;28;20029;-80
2022/10/03 09:07:06;;;;;;;8.18;2.03;;;;;;;;;;5054197;28;20021;-80
2022/10/03 09:09:55;;;;;;;5.50;1.90;;;;;;;;;;5054050;28;20033;-81
2022/10/03 09:12:42;;;;;;;7.95;1.98;;;;;;;;;;5052850;28;20113;-80
2022/10/03 09:15:26;;;;;;;3.97;1.65;;;;;;;;;;5054009;28;20434;-80
2022/10/03 09:18:08;;;;;;;8.80;1.63;;;;;;;;;;5052926;28;20060;-80
2022/10/03 09:20:37;;;;;;;2.80;1.58;;;;;;;;;;5052541;28;20094;-81
2022/10/03 09:23:39;;;;;;;2.15;1.80;;;;;;;;;;5053728;28;20021;-81
2022/10/03 09:26:05;;;;;;;6.72;1.73;;;;;;;;;;5052564;28;20054;-81
2022/10/03 09:29:05;;;;;;;6.32;1.30;;;;;;;;;;5054086;28;20101;-80
2022/10/03 09:31:39;;;;;;;4.60;1.70;;;;;;;;;;5053751;28;20020;-80
2022/10/03 09:34:23;;;;;;;3.88;1.80;;;;;;;;;;5054255;28;20348;-80
2022/10/03 09:37:10;;;;;;;3.65;1.50;;;;;;;;;;5054289;28;20033;-80
2022/10/03 09:40:06;;;;;;;2.97;1.50;;;;;;;;;;5052878;28;20070;-80
2022/10/03 09:42:50;;;;;;;5.57;1.55;;;;;;;;;;5053359;28;20484;-80
2022/10/03 09:45:42;;;;;;;4.20;1.77;;;;;;;;;;5053576;28;20025;-80
2022/10/03 09:48:17;;;;;;;3.28;1.60;;;;;;;;;;5053513;28;20021;-80
2022/10/03 09:51:00;;;;;;;6.22;1.65;;;;;;;;;;5053795;28;20041;-80
2022/10/03 09:53:29;;;;;;;5.28;1.73;;;;;;;;;;5052202;28;20533;-80
2022/10/03 09:56:22;;;;;;;3.22;1.52;;;;;;;;;;5053548;28;20040;-81
2022/10/03 09:59:04;;;;;;;4.30;1.50;;;;;;;;;;5053498;28;20046;-81
2022/10/03 10:01:29;;;;;;;5.63;1.75;;;;;;;;;;5053269;28;20021;-81
2022/10/03 10:04:15;;;;;;;3.25;1.40;;;;;;;;;;5053533;28;20119;-81
2022/10/03 10:06:52;;;;;;;3.65;1.50;;;;;;;;;;5035365;28;20464;-80
2022/10/03 10:09:20;;;;;;;4.63;1.70;;;;;;;;;;5053636;28;20036;-80
2022/10/03 10:11:45;;;;;;;4.15;1.63;;;;;;;;;;5053818;28;20017;-81
2022/10/03 10:14:35;;;;;;;8.20;1.60;;;;;;;;;;5052015;28;20021;-80
2022/10/03 10:17:06;;;;;;;7.13;1.40;;;;;;;;;;5053342;28;20017;-80
2022/10/03 10:20:04;;;;;;;4.13;1.48;;;;;;;;;;5053405;28;20059;-80
2022/10/03 10:23:08;;;;;;;4.60;1.40;;;;;;;;;;5051824;28;20543;-80
2022/10/03 10:26:04;;;;;;;4.07;1.50;;;;;;;;;;5051901;28;20052;-80
2022/10/03 10:29:02;;;;;;;3.90;1.50;;;;;;;;;;5053646;28;20033;-80
2022/10/03 10:31:43;;;;;;;4.82;1.33;;;;;;;;;;5051795;28;20040;-81
2022/10/03 10:34:33;;;;;;;3.50;1.40;;;;;;;;;;5052141;28;20028;-80
2022/10/03 10:37:17;;;;;;;4.50;1.35;;;;;;;;;;5053638;28;20025;-80
2022/10/03 10:40:02;;;;;;;4.45;1.45;;;;;;;;;;5053054;28;20045;-80
2022/10/03 10:42:55;;;;;;;3.28;1.13;;;;;;;;;;5034972;28;20041;-79
2022/10/03 10:45:44;;;;;;;5.07;1.40;;;;;;;;;;5052890;28;20103;-80
2022/10/03 10:48:15;;;;;;;3.28;1.30;;;;;;;;;;5051942;28;20033;-80
2022/10/03 10:51:12;;;;;;;3.25;1.27;;;;;;;;;;5051846;28;20029;-80
2022/10/03 10:54:12;;;;;;;4.07;1.30;;;;;;;;;;5056629;28;20094;-80
2022/10/03 10:57:08;;;;;;;4.07;1.23;;;;;;;;;;5056539;28;20020;-80
2022/10/03 11:00:07;;;;;;;4.07;1.10;;;;;;;;;;5055238;28;20032;-80
2022/10/03 11:02:55;;;;;;;3.78;1.23;;;;;;;;;;5055185;28;20502;-80
2022/10/03 11:05:45;;;;;;;3.38;1.25;;;;;;;;;;5055622;28;20028;-80
2022/10/03 11:08:36;;;;;;;3.88;1.27;;;;;;;;;;5056674;28;20025;-80
2022/10/03 11:11:40;;;;;;;4.93;1.52;;;;;;;;;;5055786;28;20025;-79
2022/10/03 11:14:40;;;;;;;2.85;1.10;;;;;;;;;;5056110;28;20025;-80
2022/10/03 11:17:27;;;;;;;6.05;1.52;;;;;;;;;;5055693;28;20028;-79
2022/10/03 11:20:19;;;;;;;3.83;1.50;;;;;;;;;;5057032;28;20083;-79
2022/10/03 11:23:18;;;;;;;4.40;1.00;;;;;;;;;;5056110;28;20029;-80
2022/10/03 11:26:01;;;;;;;4.75;1.40;;;;;;;;;;5057232;28;20021;-79
2022/10/03 11:28:51;;;;;;;3.13;1.20;;;;;;;;;;5056214;28;20032;-79
2022/10/03 11:31:53;;;;;;;6.60;1.20;;;;;;;;;;5056548;28;20028;-79
2022/10/03 11:34:41;;;;;;;7.35;1.33;;;;;;;;;;5055282;28;20028;-79
2022/10/03 11:37:26;;;;;;;3.03;1.20;;;;;;;;;;5056445;28;20510;-79
2022/10/03 11:40:45;;;;;;;4.45;1.15;;;;;;;;;;5055856;28;20556;-79
2022/10/03 11:43:49;;;;;;;4.70;1.20;;;;;;;;;;5054078;28;20048;-80
2022/10/03 11:46:33;;;;;;;4.80;1.20;;;;;;;;;;5021299;28;20033;-80
2022/10/03 11:49:05;;;;;;;3.97;1.10;;;;;;;;;;5037324;28;20033;-80
2022/10/03 11:51:42;;;;;;;4.60;1.40;;;;;;;;;;5037617;28;20033;-79
2022/10/03 11:54:26;;;;;;;9.15;1.60;;;;;;;;;;5021094;28;20488;-79
2022/10/03 11:57:01;;;;;;;;;;;;;;;;;;5037735;28;20119;-79
2022/10/03 12:00:00;;;;;;;3.42;1.10;;;;;;;;;;5038049;28;20012;-78
2022/10/03 12:02:34;;;;;;;7.70;1.08;;;;;;;;;;5036579;28;20029;-79
2022/10/03 12:05:18;;;;;;;2.60;1.20;;;;;;;;;;5054526;28;20046;-79
2022/10/03 12:11:14;;;;;;;2.95;1.00;;;;;;;;;;5053579;28;19959;-79
2022/10/03 12:14:05;;;;;;;6.07;1.25;;;;;;;;;;5044418;28;20036;-79
2022/10/03 12:16:52;;;;;;;3.85;1.20;;;;;;;;;;5037963;28;20074;-78
2022/10/03 12:19:30;;;;;;;5.07;1.08;;;;;;;;;;5055520;28;20024;-78
2022/10/03 12:22:18;;;;;;;4.50;1.50;;;;;;;;;;5054254;28;20082;-78
2022/10/03 12:24:45;;;;;;;3.78;1.38;;;;;;;;;;5055880;28;20138;-79
2022/10/03 12:27:30;;;;;;;5.15;1.23;;;;;;;;;;5054354;28;20083;-79
2022/10/03 12:29:58;;;;;;;5.25;1.40;;;;;;;;;;5038128;28;20103;-79
2022/10/03 12:32:49;;;;;;;10.40;1.60;;;;;;;;;;5054983;28;20017;-80
2022/10/03 12:35:30;;;;;;;14.48;1.60;;;;;;;;;;5054679;28;20093;-79
2022/10/03 12:38:16;;;;;;;8.15;1.17;;;;;;;;;;5054852;28;20403;-79
2022/10/03 12:41:07;;;;;;;7.57;1.95;;;;;;;;;;5050801;28;20089;-80
2022/10/03 12:43:46;;;;;;;6.40;1.80;;;;;;;;;;5051856;28;20036;-78
2022/10/03 12:46:15;;;;;;;7.85;1.85;;;;;;;;;;5034640;28;20098;-79
2022/10/03 12:49:03;;;;;;;9.20;1.35;;;;;;;;;;5050947;28;20471;-80
2022/10/03 12:51:38;;;;;;;6.90;1.50;;;;;;;;;;5052888;28;20033;-78
2022/10/03 12:54:17;;;;;;;10.55;1.55;;;;;;;;;;5051947;28;20028;-79
2022/10/03 12:56:47;;;;;;;6.38;1.40;;;;;;;;;;5053418;28;20063;-79
2022/10/03 12:59:57;;;;;;;3.83;1.33;;;;;;;;;;5052444;28;20111;-79
2022/10/03 13:02:29;;;;;;;9.27;1.60;;;;;;;;;;5062460;28;20509;-79
2022/10/03 13:05:41;;;;;;;8.52;1.42;;;;;;;;;;5044742;28;20415;-79
2022/10/03 13:08:31;;;;;;;6.55;1.58;;;;;;;;;;5053649;28;20495;-79
2022/10/03 13:11:07;;;;;;;4.60;1.30;;;;;;;;;;5050229;28;20033;-80
2022/10/03 13:14:07;;;;;;;6.80;1.58;;;;;;;;;;5051344;28;20032;-79
2022/10/03 13:17:08;;;;;;;5.60;1.65;;;;;;;;;;5051808;28;20033;-79
2022/10/03 13:19:46;;;;;;;4.55;1.27;;;;;;;;;;5051294;28;20068;-80
2022/10/03 13:22:27;;;;;;;5.53;1.10;;;;;;;;;;5050432;28;20372;-79
2022/10/03 13:25:03;;;;;;;4.30;1.30;;;;;;;;;;5050401;28;20554;-78
2022/10/03 13:27:50;;;;;;;3.72;1.10;;;;;;;;;;5049938;28;20029;-79
2022/10/03 13:30:21;;;;;;;2.85;1.08;;;;;;;;;;5049676;28;21209;-80
2022/10/03 13:32:55;;;;;;;6.82;1.75;;;;;;;;;;5051086;28;20116;-80
2022/10/03 13:38:19;;;;;;;5.82;1.50;;;;;;;;;;5049854;28;20063;-80
2022/10/03 13:41:02;;;;;;;7.22;1.70;;;;;;;;;;5032782;28;20420;-80
2022/10/03 13:43:35;;;;;;;11.63;1.75;;;;;;;;;;5050806;28;20048;-80
2022/10/03 13:46:06;;;;;;;9.10;1.50;;;;;;;;;;5050226;28;20045;-78
2022/10/03 13:48:33;;;;;;;5.38;1.60;;;;;;;;;;5033418;28;20120;-79
2022/10/03 13:51:01;;;;;;;12.43;1.75;;;;;;;;;;5051067;28;20082;-79
2022/10/03 13:53:58;;;;;;;4.68;1.75;;;;;;;;;;5050768;28;20051;-79
2022/10/03 13:56:58;;;;;;;5.70;1.55;;;;;;;;;;5049143;28;20395;-79
2022/10/03 13:59:31;;;;;;;4.53;1.55;;;;;;;;;;5049461;28;20021;-79
2022/10/03 14:02:21;;;;;;;8.73;1.70;;;;;;;;;;5049387;28;20068;-79
2022/10/03 14:04:50;;;;;;;3.83;1.30;;;;;;;;;;5050723;28;20031;-79
2022/10/03 14:07:24;;;;;;;5.75;1.80;;;;;;;;;;5052759;28;20471;-79
2022/10/03 14:10:08;;;;;;;6.05;1.40;;;;;;;;;;5052251;28;20029;-79
2022/10/03 14:12:55;;;;;;;15.38;1.73;;;;;;;;;;5054055;28;20032;-78
2022/10/03 14:15:24;;;;;;;5.28;1.40;;;;;;;;;;5053796;28;20058;-78
2022/10/03 14:18:07;;;;;;;7.63;1.65;;;;;;;;;;5054043;28;20083;-78
2022/10/03 14:20:55;;;;;;;5.90;1.57;;;;;;;;;;5054282;28;20029;-79
2022/10/03 14:23:39;;;;;;;7.22;1.65;;;;;;;;;;5053478;28;20033;-78
2022/10/03 14:26:20;;;;;;;;;;;;;;;;;;5054646;28;20051;-78
2022/10/03 14:29:01;;;;;;;7.15;1.50;;;;;;;;;;5040042;28;20326;-79
2022/10/03 14:31:35;;;;;;;8.13;1.52;;;;;;;;;;5041065;28;20027;-79
2022/10/03 14:34:36;;;;;;;6.63;1.50;;;;;;;;;;5057819;28;20108;-79
2022/10/03 14:37:13;;;;;;;8.85;1.58;;;;;;;;;;5056563;28;20025;-79
2022/10/03 14:39:53;;;;;;;7.13;1.70;;;;;;;;;;5057897;28;20046;-79
2022/10/03 14:42:37;;;;;;;8.40;1.80;;;;;;;;;;5057068;28;20122;-79
2022/10/03 14:45:08;;;;;;;5.05;1.20;;;;;;;;;;5057413;28;20557;-79
2022/10/03 14:47:36;;;;;;;9.68;1.50;;;;;;;;;;5056426;28;20100;-79
2022/10/03 14:50:04;;;;;;;10.50;2.45;;;;;;;;;;5055910;28;20025;-79
2022/10/03 14:52:54;;;;;;;8.43;1.60;;;;;;;;;;5057067;28;20029;-78
2022/10/03 14:55:22;;;;;;;6.28;1.50;;;;;;;;;;5055813;28;20028;-79
2022/10/03 14:58:01;;;;;;;9.95;1.55;;;;;;;;;;5055848;28;20028;-79
2022/10/03 15:00:42;;;;;;;3.30;1.30;;;;;;;;;;5055923;28;20399;-77
2022/10/03 15:03:16;;;;;;;11.80;1.77;;;;;;;;;;5056903;28;20399;-79
2022/10/03 15:06:00;;;;;;;13.45;1.73;;;;;;;;;;5052748;28;20017;-78
2022/10/03 15:08:35;;;;;;;2.55;1.30;;;;;;;;;;5052427;28;20036;-79
2022/10/03 15:11:01;;;;;;;8.00;2.08;;;;;;;;;;5036326;28;20039;-79
2022/10/03 15:13:32;;;;;;;8.20;1.80;;;;;;;;;;5053492;28;20028;-78
2022/10/03 15:15:59;;;;;;;10.90;1.50;;;;;;;;;;5052580;28;20024;-79
2022/10/03 15:18:25;;;;;;;9.75;1.70;;;;;;;;;;5034945;28;20471;-78
2022/10/03 15:20:53;;;;;;;10.75;1.67;;;;;;;;;;5035499;28;20120;-79
2022/10/03 15:23:22;;;;;;;5.40;1.60;;;;;;;;;;5035456;28;20037;-79
2022/10/03 15:25:51;;;;;;;45.78;2.28;;;;;;;;;;5052178;28;20083;-79
2022/10/03 15:28:24;;;;;;;7.38;1.63;;;;;;;;;;5052533;28;20025;-79
2022/10/03 15:30:57;;;;;;;9.73;1.77;;;;;;;;;;5052793;28;20021;-79
2022/10/03 15:33:31;;;;;;;19.77;1.92;;;;;;;;;;5034892;28;20911;-79
2022/10/03 15:36:13;;;;;;;5.25;1.90;;;;;;;;;;5039542;28;20044;-79
2022/10/03 15:38:40;;;;;;;8.80;1.73;;;;;;;;;;5038646;28;20032;-79
2022/10/03 15:41:11;;;;;;;6.65;1.88;;;;;;;;;;5056205;28;20144;-78
2022/10/03 15:43:52;;;;;;;7.82;1.50;;;;;;;;;;5056091;28;20059;-78
2022/10/03 15:46:45;;;;;;;11.27;2.17;;;;;;;;;;5055907;28;20023;-78
2022/10/03 15:49:25;;;;;;;7.43;1.60;;;;;;;;;;5036741;28;20033;-78
2022/10/03 15:51:52;;;;;;;7.50;2.20;;;;;;;;;;5058804;28;20061;-79
2022/10/03 15:54:23;;;;;;;7.60;1.98;;;;;;;;;;5038356;28;20063;-79
2022/10/03 15:56:59;;;;;;;5.60;1.88;;;;;;;;;;5054423;28;20463;-79
2022/10/03 15:59:26;;;;;;;5.72;1.77;;;;;;;;;;5054546;28;20464;-79
2022/10/03 16:01:54;;;;;;;3.30;1.63;;;;;;;;;;5055598;28;20021;-79
2022/10/03 16:04:36;;;;;;;5.50;1.77;;;;;;;;;;5054161;28;20340;-78
2022/10/03 16:07:23;;;;;;;8.13;1.65;;;;;;;;;;5054372;28;20407;-79
2022/10/03 16:09:55;;;;;;;10.35;1.90;;;;;;;;;;5055191;28;20083;-78
2022/10/03 16:12:36;;;;;;;7.50;1.60;;;;;;;;;;5054322;28;20021;-78
2022/10/03 16:15:21;;;;;;;6.38;1.98;;;;;;;;;;5053895;28;20029;-78
2022/10/03 16:17:51;;;;;;;8.18;2.30;;;;;;;;;;5037306;28;20021;-78
2022/10/03 16:20:35;;;;;;;7.30;1.92;;;;;;;;;;5037196;28;20062;-78
2022/10/03 16:23:08;;;;;;;;;;;;;;;;;;5054091;28;20413;-79
2022/10/03 16:26:00;;;;;;;6.78;1.70;;;;;;;;;;5053860;28;19909;-78
2022/10/03 16:28:38;;;;;;;11.15;1.88;;;;;;;;;;5048516;28;20044;-79
2022/10/03 16:31:27;;;;;;;18.20;2.28;;;;;;;;;;5052984;28;20025;-80
2022/10/03 16:33:59;;;;;;;5.75;1.95;;;;;;;;;;5053280;28;20025;-79
2022/10/03 16:36:25;;;;;;;9.07;1.98;;;;;;;;;;5036637;28;20078;-79
2022/10/03 16:38:51;;;;;;;7.95;2.05;;;;;;;;;;5054487;28;20029;-80